Etusivu
METAR-TAF:

METAR-TAF

Lentoasemat :

Pori, Suomi

Porin lentoasema

Leveyspiiri: 61-28N, Pituuspiiri: 021-48E, korkeus merenpinnasta: 13 m

Tämänhetkinen sää

Tämä raportti tehtiin 31 minuuttia sitten, kello 20.20 UTC
Tuuli 5 kn luoteesta
Lämpötila 8°C
Kosteus 66%
Ilmanpaine 1019 hPa
Näkyvyys 10 km tai enemmän
ei pilviä alle 1500 m:ssä eikä cumulonimbus-pilviä

METAR: EFPO 262020Z AUTO 32005KT CAVOK 08/02 Q1019

Aika: 23:51 (20:51 UTC)

Sääennuste

Tämä raportti tehtiin 3 tuntia ja 19 minuuttia sitten, kello 17.32 UTC
Ennuste voimassa 26. päivästä klo 18 UTC - 26. päivään klo 21 UTC
Tuuli 15 kn luoteesta
Näkyvyys 10 km tai enemmän
ei pilviä alle 1500 m:ssä eikä cumulonimbus-pilviä
Tulossa
26. päivästä klo 19 UTC - 26. päivään klo 21 UTC
Tuuli 2 kn eri suunnista

TAF: EFPO 261732Z 2618/2621 31015KT CAVOK BECMG 2619/2621 VRB02KT

Säähavainnot ja -ennusteet yli 4000 lentoasemalta (METAR- ja TAF-raportit).

Käytössä olevat sääasemat on merkitty karttaan keltaisilla ja punaisilla pisteillä.

Aseta hiiri pisteen päälle nähdäksesi sääaseman nimen.

Klikkaa sitten nähdäksesi säähavainnot ja -ennusteet.

Kartan vaihtaminen: klikkaa mustalla rastilla varustettuja vihreitä pisteitä, niin voit zoomata sisään; viivalla varustettua vihreää pistettä, niin voit zoomata ulos tai vihreitä nuolia, niin pääset viereisille kartoille.


METAR-TAF: